Pagrindinis puslapis
METAR-TAF:

METAR-TAF

Oro uostai :

Lar, Iranas

platuma: 27-40-26N, ilguma: 054-22-53E, Aukštis: 792 m

Dabartinis oras

Ataskaita buvo paskelbta 2 valandos ir 30 minutes, ne 21:00 UTC
Ramus vėjas
Temperatūra 26°C
Drėgmė 42%
Slėgis 1007 hPa
Matomumas 10 km arba daugiau
nėra debesų žemiau 1500 m ir nėra kamuolinių lietaus debesų

METAR: OISL 232100Z 00000KT CAVOK 26/12 Q1007

Laikas: 03:00 (23:30 UTC)

Prognozė

Ataskaita buvo paskelbta 5 valandos ir 40 minutes, ne 17:50 UTC
Prognozė galioja nuo 23 metu 18 UTC su 24 metu 24 UTC
Vėjas 8 kt iš Pietvakarių
Matomumas 10 km arba daugiau
nėra debesų žemiau 1500 m ir nėra kamuolinių lietaus debesų
Laikinai
nuo 24 metu 09 UTC su 24 metu 15 UTC
Vėjas 16 kt iš Pietų/Pietryčių

TAF: OISL 231750Z 2318/2424 22008KT CAVOK TEMPO 2409/2415 16016KT

Orai ataskaitas ir orų prognozės (METAR, TAF).

turimą stotys yra geltonos ir raudonos taškus žemėlapyje.

Perkelti pele per norėdami pamatyti stoties vardą.

Tada spustelėkite, norėdami matyti oro stebėjimo ir prognozės.

Norėdami pakeisti žemėlapį: spustelėkite ant žalios mygtukų su juodo kryžiaus žemyn,; žalią mygtuką su brūkšneliu, jei norite nutolinti; arba žalių rodyklių gretimoms žemėlapius.


METAR-TAF: